createdAt,value
2022-07-28T00:00:13.977Z,1.65
2022-07-28T00:05:16.693Z,1.48
2022-07-28T00:10:20.690Z,1.67
2022-07-28T00:15:23.429Z,1.83
2022-07-28T00:20:45.203Z,1.70
2022-07-28T00:25:50.369Z,2.22
2022-07-28T00:30:56.560Z,2.03
2022-07-28T00:35:59.383Z,1.88
2022-07-28T00:41:13.270Z,1.83
2022-07-28T00:46:18.536Z,2.00
2022-07-28T00:51:26.584Z,2.08
2022-07-28T00:56:30.685Z,1.92
2022-07-28T01:01:33.522Z,2.20
2022-07-28T01:06:55.792Z,2.15
2022-07-28T01:12:11.967Z,2.28
2022-07-28T01:17:22.006Z,2.55
2022-07-28T01:22:29.683Z,2.33
2022-07-28T01:27:46.615Z,2.30
2022-07-28T01:32:59.287Z,2.47
2022-07-28T01:38:06.405Z,2.55
2022-07-28T01:43:13.525Z,2.20
2022-07-28T01:48:19.683Z,2.10
2022-07-28T01:53:24.022Z,2.70
2022-07-28T01:58:28.163Z,2.40
2022-07-28T02:03:33.600Z,2.22
2022-07-28T02:08:39.123Z,2.17
2022-07-28T02:13:43.778Z,3.08
2022-07-28T02:18:49.914Z,2.10
2022-07-28T02:23:54.109Z,2.75
2022-07-28T02:29:02.850Z,2.17
2022-07-28T02:34:08.619Z,2.20
2022-07-28T02:39:18.935Z,2.70
2022-07-28T02:44:27.331Z,2.15
2022-07-28T02:49:33.381Z,2.47
2022-07-28T02:54:37.105Z,2.40
2022-07-28T02:59:42.069Z,2.70
2022-07-28T03:04:58.934Z,3.50
2022-07-28T03:10:01.949Z,2.63
2022-07-28T03:15:05.120Z,2.20
2022-07-28T03:20:10.404Z,2.50
2022-07-28T03:25:20.105Z,2.40
2022-07-28T03:30:28.722Z,3.17
2022-07-28T03:35:36.035Z,2.63
2022-07-28T03:40:39.596Z,2.57
2022-07-28T03:45:42.714Z,2.40
2022-07-28T03:50:51.132Z,2.63
2022-07-28T03:55:54.017Z,2.50
2022-07-28T04:00:57.242Z,2.60
2022-07-28T04:06:01.478Z,2.90
2022-07-28T04:11:04.267Z,2.70
2022-07-28T04:16:07.847Z,2.70
2022-07-28T04:21:11.846Z,3.03
2022-07-28T04:26:14.539Z,3.50
2022-07-28T04:31:17.356Z,2.88
2022-07-28T04:36:21.780Z,2.83
2022-07-28T04:41:24.513Z,3.00
2022-07-28T04:46:27.412Z,2.83
2022-07-28T04:51:31.454Z,2.90
2022-07-28T04:56:34.282Z,3.30
2022-07-28T05:01:39.125Z,3.42
2022-07-28T05:06:43.316Z,3.60
2022-07-28T05:11:46.077Z,3.50
2022-07-28T05:16:48.899Z,3.28
2022-07-28T05:21:53.000Z,3.70
2022-07-28T05:26:55.848Z,3.90
2022-07-28T05:31:58.582Z,3.88
2022-07-28T05:37:03.591Z,4.88
2022-07-28T05:42:06.733Z,4.72
2022-07-28T05:47:09.454Z,4.18
2022-07-28T05:52:13.431Z,5.53
2022-07-28T05:57:16.126Z,5.55
2022-07-28T06:02:19.339Z,6.03
2022-07-28T06:07:23.546Z,6.72
2022-07-28T06:12:49.803Z,6.97
2022-07-28T06:17:55.131Z,9.00
2022-07-28T06:22:59.274Z,8.73
2022-07-28T06:28:03.255Z,8.80
2022-07-28T06:33:07.705Z,9.20
2022-07-28T06:38:11.826Z,10.10
2022-07-28T06:43:14.953Z,9.73
2022-07-28T06:48:18.814Z,8.95
2022-07-28T06:53:23.300Z,9.02
2022-07-28T06:58:26.074Z,10.57
2022-07-28T07:03:28.809Z,12.48
2022-07-28T07:08:33.145Z,12.45
2022-07-28T07:13:36.964Z,11.63
2022-07-28T07:18:39.713Z,12.80
2022-07-28T07:23:43.738Z,12.13
2022-07-28T07:28:47.998Z,10.15
2022-07-28T07:33:50.688Z,11.27
2022-07-28T07:38:55.062Z,12.02
2022-07-28T07:43:57.897Z,10.80
2022-07-28T07:49:00.727Z,9.15
2022-07-28T07:54:05.214Z,10.38
2022-07-28T07:59:07.962Z,8.98
2022-07-28T08:04:10.861Z,7.60
2022-07-28T08:09:15.141Z,7.35
2022-07-28T08:14:18.498Z,6.38
2022-07-28T08:19:21.908Z,4.40
2022-07-28T08:24:33.689Z,4.82
2022-07-28T08:29:37.380Z,4.05
2022-07-28T08:34:40.241Z,2.97
2022-07-28T08:39:44.328Z,2.80
2022-07-28T08:44:53.234Z,3.25
2022-07-28T08:49:59.474Z,2.08
2022-07-28T08:55:06.575Z,2.60
2022-07-28T09:00:10.605Z,2.67
2022-07-28T09:05:13.370Z,2.72
2022-07-28T09:10:18.449Z,2.70
2022-07-28T09:15:21.242Z,1.33
2022-07-28T09:20:26.251Z,1.20
2022-07-28T09:25:32.072Z,1.00
2022-07-28T09:30:38.079Z,1.48
2022-07-28T09:35:57.907Z,1.20
2022-07-28T09:41:04.615Z,0.95
2022-07-28T09:46:11.847Z,1.13
2022-07-28T09:51:15.080Z,1.15
2022-07-28T09:56:19.525Z,0.82
2022-07-28T10:01:24.342Z,1.10
2022-07-28T10:06:31.022Z,1.20
2022-07-28T10:11:41.083Z,1.00
2022-07-28T10:16:47.040Z,1.00
2022-07-28T10:21:54.155Z,0.60
2022-07-28T10:26:59.435Z,0.90
2022-07-28T10:32:06.415Z,0.80
2022-07-28T10:37:17.678Z,0.80
2022-07-28T10:42:22.091Z,1.00
2022-07-28T10:47:25.736Z,1.10
2022-07-28T10:52:51.315Z,0.77
2022-07-28T10:58:11.764Z,0.90
2022-07-28T11:03:37.804Z,0.90
2022-07-28T11:08:40.841Z,0.93
2022-07-28T11:13:44.941Z,0.93
2022-07-28T11:19:36.051Z,1.20
2022-07-28T11:25:18.475Z,0.75
2022-07-28T11:30:55.499Z,1.20
2022-07-28T11:36:00.417Z,1.40
2022-07-28T11:41:31.026Z,1.20
2022-07-28T11:46:37.679Z,1.27
2022-07-28T11:51:52.650Z,0.80
2022-07-28T11:56:59.835Z,1.10
2022-07-28T12:02:02.706Z,0.90
2022-07-28T12:07:08.434Z,1.30
2022-07-28T12:12:13.660Z,1.08
2022-07-28T12:17:16.515Z,1.00
2022-07-28T12:22:19.331Z,1.00
2022-07-28T12:27:31.750Z,0.88
2022-07-28T12:32:36.273Z,0.77
2022-07-28T12:37:39.336Z,0.93
2022-07-28T12:42:43.724Z,0.90
2022-07-28T12:47:46.577Z,1.38
2022-07-28T12:53:07.035Z,1.10
2022-07-28T12:58:23.674Z,0.90
2022-07-28T13:03:28.455Z,0.93
2022-07-28T13:08:44.380Z,1.00
2022-07-28T13:13:50.924Z,1.00
2022-07-28T13:18:55.211Z,1.05
2022-07-28T13:23:57.947Z,1.02
2022-07-28T13:29:02.326Z,1.30
2022-07-28T13:34:05.639Z,1.52
2022-07-28T13:39:10.400Z,1.20
2022-07-28T13:44:14.675Z,1.42
2022-07-28T13:49:17.676Z,1.25
2022-07-28T13:54:24.414Z,1.23
2022-07-28T13:59:28.442Z,1.20
2022-07-28T14:04:32.300Z,1.33
2022-07-28T14:09:39.327Z,1.20
2022-07-28T14:14:48.421Z,1.55
2022-07-28T14:19:51.915Z,1.70
2022-07-28T14:24:54.950Z,1.98
2022-07-28T14:29:58.935Z,1.35
2022-07-28T14:35:02.424Z,1.30
2022-07-28T14:40:06.573Z,1.52
2022-07-28T14:45:12.459Z,2.63
2022-07-28T14:50:15.145Z,2.25
2022-07-28T14:55:18.314Z,2.50
2022-07-28T15:00:23.696Z,2.08
2022-07-28T15:05:26.580Z,1.90
2022-07-28T15:10:29.484Z,2.10
2022-07-28T15:15:33.460Z,1.73
2022-07-28T15:20:39.202Z,2.05
2022-07-28T15:25:43.956Z,1.55
2022-07-28T15:30:51.887Z,1.70
2022-07-28T15:36:00.156Z,1.58
2022-07-28T15:41:03.090Z,1.73
2022-07-28T15:46:10.514Z,1.50
2022-07-28T15:51:13.380Z,1.70
2022-07-28T15:56:16.066Z,1.25
2022-07-28T16:01:20.602Z,1.60
2022-07-28T16:06:23.677Z,1.80
2022-07-28T16:11:26.903Z,2.00
2022-07-28T16:16:30.959Z,1.45
2022-07-28T16:21:33.728Z,1.65
2022-07-28T16:26:36.433Z,1.33
2022-07-28T16:31:45.060Z,1.33
2022-07-28T16:36:48.478Z,1.25
2022-07-28T16:41:52.744Z,1.42
2022-07-28T16:46:57.232Z,1.38
2022-07-28T16:52:00.048Z,1.50
2022-07-28T16:57:03.826Z,1.50
2022-07-28T17:02:09.909Z,1.40
2022-07-28T17:07:14.258Z,1.83
2022-07-28T17:12:17.004Z,1.50
2022-07-28T17:17:21.028Z,1.80
2022-07-28T17:22:23.743Z,1.90
2022-07-28T17:27:37.166Z,2.28
2022-07-28T17:32:42.210Z,1.67
2022-07-28T17:37:44.921Z,1.52
2022-07-28T17:42:47.607Z,1.73
2022-07-28T17:47:51.935Z,1.40
2022-07-28T17:52:54.648Z,1.55
2022-07-28T17:57:57.589Z,1.60
2022-07-28T18:03:01.679Z,1.50
2022-07-28T18:08:04.488Z,1.70
2022-07-28T18:13:08.159Z,1.40
2022-07-28T18:18:12.287Z,1.50
2022-07-28T18:24:26.903Z,1.40
2022-07-28T18:30:41.236Z,1.30
2022-07-28T18:48:21.564Z,1.58
2022-07-28T18:53:28.830Z,1.90
2022-07-28T18:59:12.006Z,1.52
2022-07-28T19:04:48.156Z,1.88
2022-07-28T19:09:52.454Z,1.65
2022-07-28T19:14:55.957Z,1.42
2022-07-28T19:20:00.103Z,2.30
2022-07-28T19:25:08.348Z,1.67
2022-07-28T19:30:17.442Z,1.48
2022-07-28T19:35:23.108Z,1.67
2022-07-28T19:40:33.128Z,1.85
2022-07-28T19:45:37.953Z,1.35
2022-07-28T19:50:50.092Z,1.58
2022-07-28T19:55:59.304Z,1.50
2022-07-28T20:34:22.451Z,1.60
2022-07-28T20:40:15.779Z,1.63
2022-07-28T20:45:58.968Z,1.38
2022-07-28T20:57:15.891Z,1.30
2022-07-28T21:02:27.058Z,1.60
2022-07-28T21:08:04.716Z,1.38
2022-07-28T21:13:11.316Z,1.50
2022-07-28T21:18:14.135Z,1.65
2022-07-28T21:23:18.187Z,1.70
2022-07-28T21:28:39.698Z,3.10
2022-07-28T21:33:42.365Z,2.90
2022-07-28T21:38:45.471Z,2.30
2022-07-28T21:43:49.469Z,1.73
2022-07-28T21:48:52.638Z,1.40
2022-07-28T21:53:55.685Z,2.17
2022-07-28T21:58:59.739Z,2.40
2022-07-28T22:04:03.509Z,1.48
2022-07-28T22:09:06.244Z,2.35
2022-07-28T22:14:10.311Z,2.92
2022-07-28T22:19:13.083Z,1.35
2022-07-28T22:24:17.288Z,1.30
2022-07-28T22:29:26.471Z,1.35
2022-07-28T22:34:29.152Z,1.60
2022-07-28T22:39:31.916Z,1.20
2022-07-28T22:44:36.257Z,1.13
2022-07-28T22:49:43.780Z,1.52
2022-07-28T22:54:46.749Z,1.50
2022-07-28T22:59:51.828Z,1.30
2022-07-28T23:04:54.673Z,1.40
2022-07-28T23:09:58.760Z,1.30
2022-07-28T23:15:09.622Z,1.30
2022-07-28T23:20:12.841Z,1.88
2022-07-28T23:25:15.636Z,1.42
2022-07-28T23:30:20.078Z,1.50
2022-07-28T23:35:22.851Z,1.50
2022-07-28T23:40:25.741Z,1.40
2022-07-28T23:45:29.817Z,1.35
2022-07-28T23:50:32.588Z,1.50
2022-07-28T23:55:35.334Z,1.17
